Nichiryu Maru — JG5632 — position and weather

sailwx.info

Track history (hours):
 
Tides and Currents Weather Stations Pressure Air Temp Water Temp Dewpoint Dewpoint Depression Visibility Wind Speed Wind Dir Waves Ship Positions

Nichiryu Maru

Last reported at 2015-May-25 11:22 UTC. Time now 2015-May-27 15:55 UTC.
Position N 35°01' E 139°32'.

Length 158 m; draft 6.5 m.

Type: Cargo ship. MMSI: 43100939.

Date/timePositionNaut miles runAvg speedWind from/ knotsBaromVisibWave heightAir tempDewpointWater temp
2015-May-25 11:22N 35°01' E 139°32'1417.7
2015-May-25 10:33N 35°10' E 139°45'10 9.6
2015-May-25 09:29N 35°19' E 139°39'0 0.0
2015-May-25 08:32N 35°19' E 139°39'0 0.0
2015-May-25 07:29N 35°19' E 139°39'0 0.0
2015-May-25 06:29N 35°19' E 139°39'0 0.0
2015-May-25 05:32N 35°19' E 139°39'0 0.0
2015-May-25 04:29N 35°19' E 139°39'0 0.0
2015-May-25 03:32N 35°19' E 139°39'0 0.0
2015-May-25 02:26N 35°19' E 139°39'0 0.0
2015-May-25 01:32N 35°19' E 139°39'0 0.0
2015-May-25 00:32N 35°19' E 139°39'0 0.0
2015-May-24 23:32N 35°19' E 139°39'2 1.6
2015-May-24 22:32N 35°20' E 139°41'0 0.0
2015-May-24 21:29N 35°20' E 139°41'0 0.0
2015-May-24 20:32N 35°20' E 139°41'0 0.0
2015-May-24 19:32N 35°20' E 139°41'0 0.0
2015-May-24 18:32N 35°20' E 139°41'0 0.0
2015-May-24 17:32N 35°20' E 139°41'0 0.0
2015-May-24 16:32N 35°20' E 139°41'0 0.0
2015-May-24 15:32N 35°20' E 139°41'0 0.0
2015-May-24 14:29N 35°20' E 139°41'0 0.0
2015-May-24 13:29N 35°20' E 139°41'0 0.0
2015-May-24 12:32N 35°20' E 139°41'6 5.8
2015-May-24 11:33N 35°16' E 139°46'2617.3
2015-May-24 10:05N 34°55' E 139°28'4818.9
2015-May-24 07:33N 34°33' E 138°37'188 4.0
2015-May-22 08:23N 34°34' E 134°49'1113.7
2015-May-22 07:33N 34°37' E 135°02'1110.7
2015-May-22 06:33N 34°41' E 135°14'1 0.7
2015-May-22 05:33N 34°41' E 135°13'0 0.0
2015-May-22 04:33N 34°41' E 135°13'0 0.0
2015-May-22 03:33N 34°41' E 135°13'7 7.2
2015-May-22 02:33N 34°33' E 135°14'1717.0
2015-May-22 01:33N 34°20' E 135°01'1817.7
2015-May-22 00:33N 34°02' E 135°01'22316.8
2015-May-21 11:20N 34°55' E 139°23'1519.6
2015-May-21 10:33N 35°04' E 139°38'1414.0
2015-May-21 09:34N 35°17' E 139°45'5 5.5
2015-May-21 08:34N 35°19' E 139°39'0 0.0
2015-May-21 07:31N 35°19' E 139°39'0 0.0
2015-May-21 06:34N 35°19' E 139°39'0 0.0
2015-May-21 05:31N 35°19' E 139°39'0 0.0
2015-May-21 04:33N 35°19' E 139°39'5 5.1
2015-May-21 03:33N 35°17' E 139°45'1312.7
2015-May-21 02:34N 35°05' E 139°44'2217.2
2015-May-21 01:17N 34°50' E 139°24'5216.7
2015-May-20 22:11N 34°30' E 138°26'  
2015-May-18 11:28N 34°59' E 139°30'1617.3
2015-May-18 10:33N 35°09' E 139°45'1110.5
2015-May-18 09:34N 35°19' E 139°39'0 0.0
2015-May-18 08:32N 35°19' E 139°39'0 0.0
2015-May-18 07:32N 35°19' E 139°39'0 0.0
2015-May-18 06:32N 35°19' E 139°39'0 0.0
2015-May-18 05:32N 35°19' E 139°39'0 0.0
2015-May-18 04:32N 35°19' E 139°39'0 0.0
2015-May-18 03:32N 35°19' E 139°39'0 0.0
2015-May-18 02:32N 35°19' E 139°39'0 0.0
2015-May-18 01:32N 35°19' E 139°39'0 0.0
2015-May-18 00:32N 35°19' E 139°39'0 0.0
2015-May-17 23:32N 35°19' E 139°39'2 1.8
2015-May-17 22:31N 35°20' E 139°41'0 0.0
2015-May-17 21:31N 35°20' E 139°41'0 0.0
2015-May-17 20:31N 35°20' E 139°41'0 0.0
2015-May-17 19:31N 35°20' E 139°41'0 0.0
2015-May-17 18:31N 35°20' E 139°41'0 0.1
2015-May-17 17:31N 35°20' E 139°41'0 0.1
2015-May-17 16:31N 35°20' E 139°41'0 0.0
2015-May-17 15:31N 35°20' E 139°41'0 0.0
2015-May-17 14:28N 35°20' E 139°41'0 0.0
2015-May-17 13:31N 35°20' E 139°41'0 0.0
2015-May-17 12:31N 35°20' E 139°41'8 8.4
2015-May-17 11:34N 35°13' E 139°47'  
Track history (hours):
 
Tides and Currents Weather Stations Pressure Air Temp Water Temp Dewpoint Dewpoint Depression Visibility Wind Speed Wind Dir Waves Ship Positions

Nichiryu Maru

Last reported at 2015-May-25 11:22 UTC. Time now 2015-May-27 15:55 UTC.
Position N 35°01' E 139°32'.

Length 158 m; draft 6.5 m.

Type: Cargo ship. MMSI: 43100939.

Date/timePositionNaut miles runAvg speedWind from/ knotsBaromVisibWave heightAir tempDewpointWater temp
2015-May-25 11:22N 35°01' E 139°32'1417.7
2015-May-25 10:33N 35°10' E 139°45'10 9.6
2015-May-25 09:29N 35°19' E 139°39'0 0.0
2015-May-25 08:32N 35°19' E 139°39'0 0.0
2015-May-25 07:29N 35°19' E 139°39'0 0.0
2015-May-25 06:29N 35°19' E 139°39'0 0.0
2015-May-25 05:32N 35°19' E 139°39'0 0.0
2015-May-25 04:29N 35°19' E 139°39'0 0.0
2015-May-25 03:32N 35°19' E 139°39'0 0.0
2015-May-25 02:26N 35°19' E 139°39'0 0.0
2015-May-25 01:32N 35°19' E 139°39'0 0.0
2015-May-25 00:32N 35°19' E 139°39'0 0.0
2015-May-24 23:32N 35°19' E 139°39'2 1.6
2015-May-24 22:32N 35°20' E 139°41'0 0.0
2015-May-24 21:29N 35°20' E 139°41'0 0.0
2015-May-24 20:32N 35°20' E 139°41'0 0.0
2015-May-24 19:32N 35°20' E 139°41'0 0.0
2015-May-24 18:32N 35°20' E 139°41'0 0.0
2015-May-24 17:32N 35°20' E 139°41'0 0.0
2015-May-24 16:32N 35°20' E 139°41'0 0.0
2015-May-24 15:32N 35°20' E 139°41'0 0.0
2015-May-24 14:29N 35°20' E 139°41'0 0.0
2015-May-24 13:29N 35°20' E 139°41'0 0.0
2015-May-24 12:32N 35°20' E 139°41'6 5.8
2015-May-24 11:33N 35°16' E 139°46'2617.3
2015-May-24 10:05N 34°55' E 139°28'4818.9
2015-May-24 07:33N 34°33' E 138°37'188 4.0
2015-May-22 08:23N 34°34' E 134°49'1113.7
2015-May-22 07:33N 34°37' E 135°02'1110.7
2015-May-22 06:33N 34°41' E 135°14'1 0.7
2015-May-22 05:33N 34°41' E 135°13'0 0.0
2015-May-22 04:33N 34°41' E 135°13'0 0.0
2015-May-22 03:33N 34°41' E 135°13'7 7.2
2015-May-22 02:33N 34°33' E 135°14'1717.0
2015-May-22 01:33N 34°20' E 135°01'1817.7
2015-May-22 00:33N 34°02' E 135°01'22316.8
2015-May-21 11:20N 34°55' E 139°23'1519.6
2015-May-21 10:33N 35°04' E 139°38'1414.0
2015-May-21 09:34N 35°17' E 139°45'5 5.5
2015-May-21 08:34N 35°19' E 139°39'0 0.0
2015-May-21 07:31N 35°19' E 139°39'0 0.0
2015-May-21 06:34N 35°19' E 139°39'0 0.0
2015-May-21 05:31N 35°19' E 139°39'0 0.0
2015-May-21 04:33N 35°19' E 139°39'5 5.1
2015-May-21 03:33N 35°17' E 139°45'1312.7
2015-May-21 02:34N 35°05' E 139°44'2217.2
2015-May-21 01:17N 34°50' E 139°24'5216.7
2015-May-20 22:11N 34°30' E 138°26'  
2015-May-18 11:28N 34°59' E 139°30'1617.3
2015-May-18 10:33N 35°09' E 139°45'1110.5
2015-May-18 09:34N 35°19' E 139°39'0 0.0
2015-May-18 08:32N 35°19' E 139°39'0 0.0
2015-May-18 07:32N 35°19' E 139°39'0 0.0
2015-May-18 06:32N 35°19' E 139°39'0 0.0
2015-May-18 05:32N 35°19' E 139°39'0 0.0
2015-May-18 04:32N 35°19' E 139°39'0 0.0
2015-May-18 03:32N 35°19' E 139°39'0 0.0
2015-May-18 02:32N 35°19' E 139°39'0 0.0
2015-May-18 01:32N 35°19' E 139°39'0 0.0
2015-May-18 00:32N 35°19' E 139°39'0 0.0
2015-May-17 23:32N 35°19' E 139°39'2 1.8
2015-May-17 22:31N 35°20' E 139°41'0 0.0
2015-May-17 21:31N 35°20' E 139°41'0 0.0
2015-May-17 20:31N 35°20' E 139°41'0 0.0
2015-May-17 19:31N 35°20' E 139°41'0 0.0
2015-May-17 18:31N 35°20' E 139°41'0 0.1
2015-May-17 17:31N 35°20' E 139°41'0 0.1
2015-May-17 16:31N 35°20' E 139°41'0 0.0
2015-May-17 15:31N 35°20' E 139°41'0 0.0
2015-May-17 14:28N 35°20' E 139°41'0 0.0
2015-May-17 13:31N 35°20' E 139°41'0 0.0
2015-May-17 12:31N 35°20' E 139°41'8 8.4
2015-May-17 11:34N 35°13' E 139°47'  

Dump ship's entire track history